Strona główna
METAR-TAF:

METAR-TAF

Lotnisko :

Port lotniczy Dubaj

Dubaj, Zjednoczone Emiraty Arabskie

Szerokość geograficzna: 25-15-10N, Długość geograficzna: 055-21-52E, wysokość: 8 m

Aktualna obserwacja pogody

Raport powstał 22 minut temu, godzina 11:00 UTC
Wiatr 14 kt od północny zachód
Temperatura 39°C
Wilgotność 54%
Ciśnienie 996 hPa
Widzialność: 8000 m

METAR: OMDB 181100Z 32014KT 8000 NSC 39/28 Q0996 NOSIG

czas: 15:22 (11:22 UTC)

Prognoza

Raport powstał 6 godziny i 21 minut temu, godzina 05:01 UTC
Prognoza ważna od 18 godzina 06 UTC do 19 godzina 12 UTC
Wiatr 8 kt od południowy wschód
Widzialność: 8000 m
Mało chmury na wysokości 2500 ft
Stopniowe zmiany
od 18 godzina 07 UTC do 18 godzina 09 UTC
Wiatr 12 kt od północny zachód
Stopniowe zmiany
od 18 godzina 19 UTC do 18 godzina 21 UTC
Wiatr 5 kt od wschód
Stopniowe zmiany
od 19 godzina 09 UTC do 19 godzina 11 UTC
Wiatr 13 kt od północ

TAF: OMDB 180501Z 1806/1912 13008KT 8000 FEW025 BECMG 1807/1809 32012KT BECMG 1819/1821 08005KT BECMG 1909/1911 35013KT

Obserwacja i prognoza pogody dla ponad 4000 lotnisk (raport METAR i TAF).

Dostępne stacje oznaczono żółtymi i czerwonymi punktami na mapie.

Najedź kursorem aby zobaczyć nazwę stacji.

Kliknij aby zobaczyć obserwacje i prognozy pogody.

Aby zmienić mapę: kliknij na zielony przycisk z czarnym krzyżykiem, aby powiększyć; na zielony przycisk z myślnikiem, aby pomniejszyć; na zielone strzałki, aby przejść do map sąsiednich.


METAR-TAF: